Terminal Aerodrome Forecast
Issued by NWS Charleston, WV

Home | Current Version | Previous Version | Text Only | Print | Product List | Glossary On
Versions: 1 2 3 4 5 6 7 8 9 10 11 12 13 14 15 16 17 18 19 20 21 22 23 24 25 26 27 28
000
FTUS41 KRLX 221600 AAA
TAFCRW
TAF AMD
KCRW 221627Z 2216/2312 30004KT P6SM SCT015 BKN025
     FM221700 30005KT P6SM BKN025
     FM222000 30005KT P6SM SCT035
     FM230000 00000KT P6SM FEW035
     FM230700 00000KT 5SM BR FEW035
     FM230900 00000KT 1/4SM FG VV001=

USA.gov is the U.S. government's official web portal to all federal, state and local government web resources and services.